Time;durP1;ratioP1;P1;durP2;ratioP2;P2;SDS_P1;SDS_P2;PMS_P1;PMS_P2;Temp;Humidity;BMP_temperature;BMP_pressure;BME280_temperature;BME280_humidity;BME280_pressure;Samples;Min_cycle;Max_cycle;Signal;HPM_P1;HPM_P2
2023/04/04 00:00:59;;;;;;;9.32;8.88;;;;;;;;;;5092056;28;20302;-67
2023/04/04 00:03:27;;;;;;;8.77;8.23;;;;;;;;;;5090371;28;20207;-68
2023/04/04 00:05:55;;;;;;;8.68;8.07;;;;;;;;;;5073610;28;20199;-68
2023/04/04 00:08:23;;;;;;;8.07;7.78;;;;;;;;;;5091577;28;20242;-69
2023/04/04 00:10:57;;;;;;;9.05;8.18;;;;;;;;;;5092412;28;20191;-66
2023/04/04 00:13:26;;;;;;;8.45;8.15;;;;;;;;;;5092188;28;20197;-68
2023/04/04 00:15:56;;;;;;;8.63;8.30;;;;;;;;;;5092821;28;20199;-68
2023/04/04 00:18:24;;;;;;;7.70;7.30;;;;;;;;;;5092306;28;20211;-67
2023/04/04 00:20:52;;;;;;;8.23;7.82;;;;;;;;;;5092512;28;20227;-68
2023/04/04 00:23:20;;;;;;;9.23;8.63;;;;;;;;;;5087384;28;20196;-68
2023/04/04 00:25:51;;;;;;;8.60;8.20;;;;;;;;;;5073906;28;20203;-68
2023/04/04 00:28:19;;;;;;;7.82;7.45;;;;;;;;;;5086638;28;20192;-68
2023/04/04 00:30:49;;;;;;;7.97;7.63;;;;;;;;;;5064085;28;20192;-68
2023/04/04 00:33:17;;;;;;;8.32;7.82;;;;;;;;;;5073010;28;20598;-68
2023/04/04 00:35:45;;;;;;;9.75;9.25;;;;;;;;;;5091412;28;20202;-68
2023/04/04 00:38:14;;;;;;;8.20;7.90;;;;;;;;;;5078331;28;20199;-69
2023/04/04 00:40:43;;;;;;;9.25;8.27;;;;;;;;;;5091211;28;20660;-69
2023/04/04 00:43:11;;;;;;;9.55;8.80;;;;;;;;;;5086279;28;20651;-68
2023/04/04 00:45:40;;;;;;;8.45;8.02;;;;;;;;;;5053782;28;20210;-69
2023/04/04 00:48:10;;;;;;;8.93;8.32;;;;;;;;;;5062366;28;20199;-69
2023/04/04 00:50:38;;;;;;;8.40;8.00;;;;;;;;;;5091522;28;20191;-69
2023/04/04 00:53:06;;;;;;;9.00;8.30;;;;;;;;;;5090765;28;20217;-69
2023/04/04 00:55:37;;;;;;;8.75;8.35;;;;;;;;;;5091272;28;20203;-69
2023/04/04 00:58:06;;;;;;;8.20;7.70;;;;;;;;;;5085591;28;20200;-69
2023/04/04 01:00:35;;;;;;;7.75;7.35;;;;;;;;;;5084421;28;20219;-68
2023/04/04 01:03:06;;;;;;;8.48;7.97;;;;;;;;;;5070969;28;20204;-69
2023/04/04 01:05:36;;;;;;;8.85;8.20;;;;;;;;;;5052898;28;20203;-69
2023/04/04 01:08:04;;;;;;;8.07;7.78;;;;;;;;;;5053993;28;20237;-69
2023/04/04 01:10:34;;;;;;;7.65;7.25;;;;;;;;;;5073104;28;20210;-69
2023/04/04 01:13:03;;;;;;;8.13;7.63;;;;;;;;;;5073280;28;20209;-69
2023/04/04 01:15:31;;;;;;;7.32;6.90;;;;;;;;;;5090751;28;20205;-68
2023/04/04 01:18:00;;;;;;;7.63;7.30;;;;;;;;;;5082084;28;20204;-69
2023/04/04 01:20:32;;;;;;;7.72;7.15;;;;;;;;;;5072518;28;20220;-69
2023/04/04 01:23:02;;;;;;;7.38;7.00;;;;;;;;;;5056729;28;20213;-69
2023/04/04 01:25:33;;;;;;;7.63;7.07;;;;;;;;;;5072942;28;20244;-68
2023/04/04 01:28:06;;;;;;;7.53;6.93;;;;;;;;;;5066146;28;20268;-68
2023/04/04 01:30:35;;;;;;;7.07;6.72;;;;;;;;;;5068610;28;20202;-69
2023/04/04 01:33:08;;;;;;;7.05;6.70;;;;;;;;;;5073827;28;20207;-70
2023/04/04 01:35:39;;;;;;;6.88;6.45;;;;;;;;;;5091555;28;20188;-69
2023/04/04 01:38:14;;;;;;;6.32;6.03;;;;;;;;;;5091647;28;20261;-68
2023/04/04 01:40:48;;;;;;;6.32;5.93;;;;;;;;;;5095381;28;20213;-69
2023/04/04 01:43:17;;;;;;;5.68;5.38;;;;;;;;;;5077245;28;20183;-68
2023/04/04 01:45:47;;;;;;;5.50;5.20;;;;;;;;;;5076327;28;20202;-69
2023/04/04 01:48:15;;;;;;;5.20;4.80;;;;;;;;;;5077266;28;20202;-68
2023/04/04 01:50:47;;;;;;;5.88;5.55;;;;;;;;;;5094768;28;20520;-68
2023/04/04 01:53:15;;;;;;;6.53;5.50;;;;;;;;;;5076406;28;20203;-69
2023/04/04 01:55:45;;;;;;;5.63;5.22;;;;;;;;;;5094468;28;20203;-68
2023/04/04 01:58:14;;;;;;;7.55;5.28;;;;;;;;;;5076328;28;20561;-68
2023/04/04 02:00:42;;;;;;;5.47;4.95;;;;;;;;;;5076284;28;20223;-68
2023/04/04 02:03:10;;;;;;;5.28;5.07;;;;;;;;;;5093774;28;20661;-69
2023/04/04 02:05:39;;;;;;;4.60;4.43;;;;;;;;;;5076138;28;20767;-70
2023/04/04 02:08:08;;;;;;;5.45;5.20;;;;;;;;;;5094444;28;20240;-69
2023/04/04 02:10:46;;;;;;;5.10;4.68;;;;;;;;;;5076189;28;20279;-69
2023/04/04 02:13:14;;;;;;;4.82;4.63;;;;;;;;;;5076985;28;20233;-71
2023/04/04 02:15:43;;;;;;;6.20;4.90;;;;;;;;;;5076084;28;20210;-68
2023/04/04 02:18:11;;;;;;;4.60;4.30;;;;;;;;;;5076672;28;20211;-70
2023/04/04 02:20:39;;;;;;;5.15;4.20;;;;;;;;;;5060713;28;20227;-69
2023/04/04 02:23:08;;;;;;;4.25;4.05;;;;;;;;;;5095095;28;20205;-69
2023/04/04 02:25:36;;;;;;;5.57;3.92;;;;;;;;;;5094149;28;20214;-69
2023/04/04 02:28:05;;;;;;;3.80;3.40;;;;;;;;;;5093846;28;20206;-69
2023/04/04 02:30:34;;;;;;;3.53;3.28;;;;;;;;;;5092798;28;20199;-68
2023/04/04 02:33:05;;;;;;;8.77;3.65;;;;;;;;;;5061198;28;20190;-69
2023/04/04 02:35:33;;;;;;;2.95;2.70;;;;;;;;;;5083953;28;20203;-69
2023/04/04 02:38:01;;;;;;;3.78;3.47;;;;;;;;;;5071405;28;20554;-66
2023/04/04 02:40:40;;;;;;;3.85;3.63;;;;;;;;;;5076309;28;20204;-68
2023/04/04 02:43:10;;;;;;;4.10;3.60;;;;;;;;;;5069763;28;20199;-68
2023/04/04 02:45:39;;;;;;;3.70;3.40;;;;;;;;;;5093010;28;20192;-68
2023/04/04 02:48:27;;;;;;;6.72;3.60;;;;;;;;;;5075460;28;20660;-67
2023/04/04 02:51:00;;;;;;;4.72;4.00;;;;;;;;;;5092444;28;20188;-68
2023/04/04 02:53:28;;;;;;;3.55;3.45;;;;;;;;;;5074908;28;20207;-68
2023/04/04 02:56:03;;;;;;;3.92;3.60;;;;;;;;;;5075080;28;20195;-68
2023/04/04 02:58:33;;;;;;;3.05;2.85;;;;;;;;;;5075411;28;20302;-67
2023/04/04 03:01:01;;;;;;;3.30;3.10;;;;;;;;;;5075278;28;20225;-68
2023/04/04 03:03:35;;;;;;;5.03;3.78;;;;;;;;;;5074565;28;20195;-67
2023/04/04 03:06:03;;;;;;;5.28;4.30;;;;;;;;;;5074856;28;20205;-68
2023/04/04 03:08:31;;;;;;;11.07;5.40;;;;;;;;;;5092855;28;20237;-68
2023/04/04 03:11:01;;;;;;;5.03;4.03;;;;;;;;;;5075963;28;20205;-68
2023/04/04 03:13:29;;;;;;;4.20;3.90;;;;;;;;;;5074842;28;20648;-68
2023/04/04 03:16:03;;;;;;;3.72;3.33;;;;;;;;;;5093196;28;20583;-68
2023/04/04 03:18:40;;;;;;;4.03;3.72;;;;;;;;;;5075604;28;20191;-68
2023/04/04 03:21:08;;;;;;;3.65;3.30;;;;;;;;;;5093529;28;20572;-69
2023/04/04 03:23:37;;;;;;;5.10;4.07;;;;;;;;;;5074732;28;20199;-68
2023/04/04 03:26:05;;;;;;;3.28;3.08;;;;;;;;;;5093159;28;20211;-68
2023/04/04 03:28:33;;;;;;;3.13;2.92;;;;;;;;;;5092904;28;20676;-69
2023/04/04 03:31:05;;;;;;;3.65;3.28;;;;;;;;;;5074899;28;20207;-67
2023/04/04 03:33:36;;;;;;;6.47;4.07;;;;;;;;;;5074851;28;20198;-69
2023/04/04 03:36:10;;;;;;;5.57;3.70;;;;;;;;;;5093602;28;20556;-68
2023/04/04 03:38:38;;;;;;;3.67;3.38;;;;;;;;;;5071807;28;20184;-68
2023/04/04 03:41:07;;;;;;;6.32;3.08;;;;;;;;;;5071823;28;20228;-69
2023/04/04 03:43:36;;;;;;;6.22;5.30;;;;;;;;;;5072039;28;20210;-68
2023/04/04 03:46:06;;;;;;;3.40;2.42;;;;;;;;;;5053890;28;20222;-68
2023/04/04 03:48:34;;;;;;;3.10;2.80;;;;;;;;;;5071948;28;20559;-69
2023/04/04 03:51:05;;;;;;;3.42;2.50;;;;;;;;;;5054053;28;20183;-69
2023/04/04 03:53:35;;;;;;;3.67;3.22;;;;;;;;;;5073171;28;20207;-67
2023/04/04 03:56:04;;;;;;;5.28;2.75;;;;;;;;;;5053430;28;20196;-68
2023/04/04 03:58:32;;;;;;;6.00;2.90;;;;;;;;;;5071903;28;20560;-68
2023/04/04 04:01:00;;;;;;;11.07;3.05;;;;;;;;;;5070448;28;20216;-68
2023/04/04 04:03:32;;;;;;;6.70;3.05;;;;;;;;;;5052877;28;20634;-68
2023/04/04 04:06:01;;;;;;;5.13;4.00;;;;;;;;;;5053305;28;20204;-69
2023/04/04 04:08:29;;;;;;;10.00;4.10;;;;;;;;;;5071229;28;20231;-68
2023/04/04 04:10:57;;;;;;;3.38;3.08;;;;;;;;;;5071922;28;20188;-67
2023/04/04 04:13:25;;;;;;;3.72;3.42;;;;;;;;;;5070236;28;20204;-67
2023/04/04 04:15:55;;;;;;;4.07;3.67;;;;;;;;;;5071855;28;20207;-66
2023/04/04 04:18:24;;;;;;;5.35;3.30;;;;;;;;;;5054156;28;20572;-68
2023/04/04 04:21:00;;;;;;;3.60;3.30;;;;;;;;;;5053660;28;20224;-68
2023/04/04 04:23:29;;;;;;;11.43;3.63;;;;;;;;;;5071969;28;20543;-68
2023/04/04 04:25:58;;;;;;;3.38;2.95;;;;;;;;;;5054096;28;20207;-68
2023/04/04 04:28:27;;;;;;;3.20;2.85;;;;;;;;;;5070268;28;20202;-68
2023/04/04 04:30:55;;;;;;;3.72;3.42;;;;;;;;;;5074098;28;20669;-66
2023/04/04 04:33:29;;;;;;;4.85;3.78;;;;;;;;;;5073411;28;20236;-68
2023/04/04 04:36:02;;;;;;;10.25;9.38;;;;;;;;;;5056937;28;20549;-68
2023/04/04 04:38:38;;;;;;;4.47;3.90;;;;;;;;;;5070117;28;20188;-67
2023/04/04 04:41:07;;;;;;;3.88;3.58;;;;;;;;;;5053509;28;20561;-66
2023/04/04 04:43:43;;;;;;;6.72;4.35;;;;;;;;;;5053010;28;20548;-67
2023/04/04 04:46:11;;;;;;;5.03;4.50;;;;;;;;;;5080679;28;20249;-67
2023/04/04 04:48:39;;;;;;;4.43;3.88;;;;;;;;;;5072282;28;20207;-66
2023/04/04 04:51:10;;;;;;;4.82;3.25;;;;;;;;;;5070663;28;20207;-66
2023/04/04 04:53:44;;;;;;;3.95;3.65;;;;;;;;;;5056809;28;20644;-66
2023/04/04 04:56:12;;;;;;;4.63;3.38;;;;;;;;;;5074727;28;20207;-67
2023/04/04 04:58:46;;;;;;;9.40;4.93;;;;;;;;;;5074019;28;20202;-65
2023/04/04 05:01:21;;;;;;;7.25;6.30;;;;;;;;;;5092499;28;20207;-67
2023/04/04 05:03:50;;;;;;;6.25;4.70;;;;;;;;;;5073513;28;20203;-66
2023/04/04 05:06:26;;;;;;;5.38;4.90;;;;;;;;;;5074219;28;20202;-67
2023/04/04 05:08:56;;;;;;;4.60;4.20;;;;;;;;;;5069456;28;20232;-66
2023/04/04 05:11:30;;;;;;;5.70;4.45;;;;;;;;;;5070881;28;20185;-68
2023/04/04 05:13:59;;;;;;;6.10;4.78;;;;;;;;;;5072588;28;20658;-70
2023/04/04 05:16:29;;;;;;;4.82;4.32;;;;;;;;;;5074483;28;20192;-67
2023/04/04 05:18:59;;;;;;;6.65;5.35;;;;;;;;;;5073371;28;20208;-68
2023/04/04 05:21:29;;;;;;;8.27;4.78;;;;;;;;;;5072041;28;20220;-67
2023/04/04 05:24:00;;;;;;;6.25;5.30;;;;;;;;;;5056957;28;20204;-67
2023/04/04 05:26:28;;;;;;;7.25;5.38;;;;;;;;;;5068203;28;20192;-67
2023/04/04 05:28:58;;;;;;;10.88;5.13;;;;;;;;;;5046464;28;20203;-68
2023/04/04 05:31:28;;;;;;;5.10;4.60;;;;;;;;;;5058602;28;20200;-67
2023/04/04 05:33:56;;;;;;;4.90;4.57;;;;;;;;;;5054675;28;20208;-68
2023/04/04 05:36:34;;;;;;;9.88;4.60;;;;;;;;;;5055514;28;20202;-68
2023/04/04 05:39:06;;;;;;;20.98;5.53;;;;;;;;;;5074523;28;20196;-67
2023/04/04 05:41:38;;;;;;;4.95;4.25;;;;;;;;;;5068935;28;20208;-68
2023/04/04 05:44:15;;;;;;;6.35;4.38;;;;;;;;;;5062732;28;20251;-68
2023/04/04 05:46:44;;;;;;;6.25;4.20;;;;;;;;;;5061120;28;20207;-68
2023/04/04 05:49:12;;;;;;;9.88;4.25;;;;;;;;;;5069458;28;20200;-68
2023/04/04 05:51:48;;;;;;;6.25;4.35;;;;;;;;;;5058812;28;20716;-65
2023/04/04 05:54:18;;;;;;;5.50;4.30;;;;;;;;;;5069102;28;20565;-68
2023/04/04 05:56:46;;;;;;;5.65;4.18;;;;;;;;;;5061442;28;20196;-68
2023/04/04 05:59:24;;;;;;;5.00;4.60;;;;;;;;;;5064029;28;20192;-68
2023/04/04 06:01:57;;;;;;;5.70;5.20;;;;;;;;;;5063512;28;20250;-66
2023/04/04 06:04:25;;;;;;;13.02;4.30;;;;;;;;;;5059487;28;20250;-66
2023/04/04 06:06:57;;;;;;;5.57;5.05;;;;;;;;;;5069009;28;20197;-67
2023/04/04 06:09:26;;;;;;;7.38;5.40;;;;;;;;;;5081594;28;20698;-66
2023/04/04 06:11:54;;;;;;;7.15;5.07;;;;;;;;;;5082899;28;20772;-67
2023/04/04 06:14:23;;;;;;;6.78;4.75;;;;;;;;;;5087291;28;20195;-67
2023/04/04 06:16:52;;;;;;;6.43;5.78;;;;;;;;;;5068031;28;20192;-66
2023/04/04 06:19:20;;;;;;;6.00;4.63;;;;;;;;;;5084712;28;20215;-68
2023/04/04 06:21:49;;;;;;;7.30;4.80;;;;;;;;;;5083519;28;20200;-67
2023/04/04 06:24:18;;;;;;;6.32;4.85;;;;;;;;;;5067098;28;20200;-68
2023/04/04 06:26:50;;;;;;;5.93;4.18;;;;;;;;;;5066521;28;20199;-68
2023/04/04 06:29:19;;;;;;;4.90;4.50;;;;;;;;;;5066421;28;20190;-67
2023/04/04 06:31:47;;;;;;;5.25;4.68;;;;;;;;;;5067187;28;20199;-66
2023/04/04 06:34:24;;;;;;;7.93;4.20;;;;;;;;;;5067231;28;20191;-67
2023/04/04 06:36:56;;;;;;;4.47;4.07;;;;;;;;;;5066562;28;20525;-67
2023/04/04 06:39:30;;;;;;;5.20;4.30;;;;;;;;;;5048621;28;20196;-67
2023/04/04 06:42:01;;;;;;;3.53;3.22;;;;;;;;;;5065009;28;20207;-67
2023/04/04 06:44:32;;;;;;;7.68;4.72;;;;;;;;;;5067919;28;20196;-67
2023/04/04 06:47:01;;;;;;;5.05;4.38;;;;;;;;;;5092579;28;20264;-67
2023/04/04 06:49:29;;;;;;;4.63;4.22;;;;;;;;;;5092032;28;20187;-67
2023/04/04 06:51:58;;;;;;;5.85;4.72;;;;;;;;;;5057863;28;20207;-66
2023/04/04 06:54:26;;;;;;;3.75;3.55;;;;;;;;;;5092177;28;20195;-67
2023/04/04 06:56:56;;;;;;;10.00;5.18;;;;;;;;;;5090767;28;20199;-66
2023/04/04 06:59:24;;;;;;;4.40;4.10;;;;;;;;;;5092420;28;20287;-65
2023/04/04 07:01:53;;;;;;;5.95;4.38;;;;;;;;;;5092089;28;20203;-70
2023/04/04 07:04:21;;;;;;;6.03;4.28;;;;;;;;;;5054239;28;20203;-68
2023/04/04 07:06:49;;;;;;;11.52;5.00;;;;;;;;;;5092437;28;20515;-70
2023/04/04 07:09:17;;;;;;;5.18;4.50;;;;;;;;;;5092771;28;20249;-68
2023/04/04 07:11:46;;;;;;;4.78;4.38;;;;;;;;;;5092545;28;20206;-67
2023/04/04 07:14:15;;;;;;;6.00;5.35;;;;;;;;;;5104789;28;20205;-67
2023/04/04 07:16:43;;;;;;;5.75;5.25;;;;;;;;;;5054311;28;20210;-67
2023/04/04 07:19:12;;;;;;;6.05;5.60;;;;;;;;;;5086026;28;20211;-67
2023/04/04 07:21:40;;;;;;;6.38;6.07;;;;;;;;;;5092452;28;20590;-67
2023/04/04 07:24:09;;;;;;;9.43;6.35;;;;;;;;;;5079112;28;20224;-67
2023/04/04 07:26:37;;;;;;;10.35;6.80;;;;;;;;;;5092484;28;20207;-67
2023/04/04 07:29:05;;;;;;;7.35;6.75;;;;;;;;;;5078971;28;20204;-66
2023/04/04 07:31:35;;;;;;;7.25;6.68;;;;;;;;;;5092442;28;20645;-67
2023/04/04 07:34:03;;;;;;;8.38;7.53;;;;;;;;;;5092605;28;20244;-67
2023/04/04 07:36:32;;;;;;;8.07;7.57;;;;;;;;;;5091552;28;20213;-66
2023/04/04 07:39:00;;;;;;;8.38;7.88;;;;;;;;;;5080320;28;20204;-67
2023/04/04 07:41:28;;;;;;;7.97;7.68;;;;;;;;;;5080977;28;20677;-68
2023/04/04 07:43:56;;;;;;;7.95;7.50;;;;;;;;;;5063196;28;20233;-67
2023/04/04 07:46:26;;;;;;;7.88;7.57;;;;;;;;;;5083860;28;20203;-68
2023/04/04 07:48:56;;;;;;;8.20;7.70;;;;;;;;;;5092919;28;20217;-67
2023/04/04 07:51:28;;;;;;;8.25;7.65;;;;;;;;;;5093585;28;20205;-67
2023/04/04 07:53:56;;;;;;;8.10;7.50;;;;;;;;;;5093212;28;20220;-67
2023/04/04 07:56:25;;;;;;;9.13;8.65;;;;;;;;;;5092756;28;20207;-66
2023/04/04 07:58:53;;;;;;;8.90;8.30;;;;;;;;;;5092802;28;20191;-66
2023/04/04 08:01:21;;;;;;;8.98;8.48;;;;;;;;;;5092911;28;20195;-67
2023/04/04 08:03:52;;;;;;;8.43;8.00;;;;;;;;;;5091545;28;20693;-65
2023/04/04 08:06:21;;;;;;;9.15;8.40;;;;;;;;;;5092214;28;20565;-66
2023/04/04 08:08:51;;;;;;;9.77;9.05;;;;;;;;;;5092507;28;20295;-68
2023/04/04 08:11:20;;;;;;;9.27;8.55;;;;;;;;;;5092256;28;20248;-67
2023/04/04 08:13:48;;;;;;;8.52;8.13;;;;;;;;;;5088897;28;20202;-66
2023/04/04 08:16:17;;;;;;;9.20;8.60;;;;;;;;;;5091302;28;20211;-67
2023/04/04 08:18:45;;;;;;;9.63;8.98;;;;;;;;;;5092927;28;20205;-67
2023/04/04 08:21:13;;;;;;;9.02;8.52;;;;;;;;;;5092272;28;20221;-65
2023/04/04 08:23:43;;;;;;;9.70;9.30;;;;;;;;;;5088701;28;20655;-65
2023/04/04 08:26:11;;;;;;;10.10;9.38;;;;;;;;;;5088505;28;20960;-67
2023/04/04 08:28:39;;;;;;;9.73;9.13;;;;;;;;;;5088783;28;20509;-68
2023/04/04 08:31:09;;;;;;;9.93;9.43;;;;;;;;;;5071135;28;20570;-67
2023/04/04 08:33:37;;;;;;;10.00;9.57;;;;;;;;;;5089522;28;20198;-69
2023/04/04 08:36:06;;;;;;;10.57;10.00;;;;;;;;;;5087459;28;20218;-68
2023/04/04 08:38:34;;;;;;;10.35;9.65;;;;;;;;;;5091495;28;20230;-65
2023/04/04 08:41:04;;;;;;;11.57;9.77;;;;;;;;;;5074108;28;20240;-67
2023/04/04 08:43:33;;;;;;;9.55;8.85;;;;;;;;;;5091612;28;20642;-67
2023/04/04 08:46:02;;;;;;;11.30;10.48;;;;;;;;;;5092595;28;20593;-67
2023/04/04 08:48:31;;;;;;;10.13;9.52;;;;;;;;;;5090767;28;20661;-67
2023/04/04 08:51:00;;;;;;;11.48;10.82;;;;;;;;;;5080156;28;20212;-67
2023/04/04 08:53:29;;;;;;;10.27;9.77;;;;;;;;;;5071312;28;20212;-66
2023/04/04 08:55:59;;;;;;;10.43;9.48;;;;;;;;;;5071636;28;20554;-67
2023/04/04 08:58:28;;;;;;;10.70;10.10;;;;;;;;;;5085004;28;20199;-66
2023/04/04 09:00:57;;;;;;;10.80;10.20;;;;;;;;;;5092201;28;20221;-66
2023/04/04 09:03:26;;;;;;;10.60;9.88;;;;;;;;;;5089326;28;20238;-65
2023/04/04 09:05:54;;;;;;;10.48;9.98;;;;;;;;;;5073852;28;20236;-66
2023/04/04 09:08:23;;;;;;;10.27;9.60;;;;;;;;;;5091662;28;20233;-65
2023/04/04 09:10:52;;;;;;;9.90;9.50;;;;;;;;;;5090630;28;20199;-67
2023/04/04 09:13:20;;;;;;;11.32;10.52;;;;;;;;;;5082417;28;20200;-67
2023/04/04 09:15:52;;;;;;;10.55;10.05;;;;;;;;;;5071466;28;20208;-66
2023/04/04 09:18:21;;;;;;;11.15;10.45;;;;;;;;;;5084504;28;20217;-66
2023/04/04 09:20:50;;;;;;;10.55;10.15;;;;;;;;;;5110327;28;20222;-65
2023/04/04 09:23:19;;;;;;;11.20;10.60;;;;;;;;;;5111701;28;20598;-66
2023/04/04 09:25:48;;;;;;;10.52;10.02;;;;;;;;;;5111025;28;20204;-67
2023/04/04 09:28:16;;;;;;;11.48;10.57;;;;;;;;;;5075288;28;20258;-67
2023/04/04 09:30:45;;;;;;;11.57;10.98;;;;;;;;;;5070745;28;20211;-65
2023/04/04 09:33:16;;;;;;;11.02;10.20;;;;;;;;;;5085458;28;20206;-68
2023/04/04 09:35:45;;;;;;;11.07;10.48;;;;;;;;;;5053822;28;20237;-68
2023/04/04 09:38:15;;;;;;;10.95;10.32;;;;;;;;;;5086858;28;20207;-66
2023/04/04 09:40:44;;;;;;;11.05;10.45;;;;;;;;;;5091258;28;20205;-67
2023/04/04 09:43:13;;;;;;;15.48;10.75;;;;;;;;;;5080824;28;20211;-65
2023/04/04 09:45:42;;;;;;;11.07;10.57;;;;;;;;;;5071813;28;20714;-67
2023/04/04 09:48:12;;;;;;;10.98;10.50;;;;;;;;;;5070992;28;20202;-67
2023/04/04 09:50:46;;;;;;;11.43;10.45;;;;;;;;;;5083618;28;20680;-67
2023/04/04 09:53:17;;;;;;;12.15;11.13;;;;;;;;;;5091961;28;20236;-67
2023/04/04 09:55:50;;;;;;;10.77;10.18;;;;;;;;;;5092492;28;20190;-67
2023/04/04 09:58:20;;;;;;;14.02;10.98;;;;;;;;;;5090716;28;20191;-68
2023/04/04 10:00:48;;;;;;;11.00;10.35;;;;;;;;;;5096400;28;20199;-68
2023/04/04 10:03:17;;;;;;;11.45;10.60;;;;;;;;;;5094769;28;20646;-68
2023/04/04 10:05:46;;;;;;;12.05;11.40;;;;;;;;;;5079207;28;20196;-65
2023/04/04 10:08:15;;;;;;;10.90;10.32;;;;;;;;;;5103197;28;20230;-67
2023/04/04 10:10:50;;;;;;;11.68;10.93;;;;;;;;;;5091369;28;20227;-68
2023/04/04 10:13:26;;;;;;;11.73;10.98;;;;;;;;;;5099102;28;20191;-67
2023/04/04 10:15:56;;;;;;;12.15;11.20;;;;;;;;;;5074622;28;20198;-67
2023/04/04 10:18:25;;;;;;;11.60;10.82;;;;;;;;;;5095871;28;20208;-67
2023/04/04 10:20:55;;;;;;;11.25;10.75;;;;;;;;;;5093581;28;20564;-68
2023/04/04 10:23:26;;;;;;;10.27;9.88;;;;;;;;;;5099624;28;20194;-67
2023/04/04 10:25:54;;;;;;;11.20;10.60;;;;;;;;;;5099991;28;20754;-67
2023/04/04 10:28:23;;;;;;;11.45;10.60;;;;;;;;;;5091513;28;20568;-67
2023/04/04 10:30:53;;;;;;;10.90;10.35;;;;;;;;;;5097542;28;20198;-67
2023/04/04 10:33:23;;;;;;;10.95;10.32;;;;;;;;;;5076776;28;20207;-68
2023/04/04 10:35:54;;;;;;;10.93;10.32;;;;;;;;;;5100658;28;20205;-67
2023/04/04 10:38:26;;;;;;;12.07;11.27;;;;;;;;;;5104144;28;20197;-67
2023/04/04 10:40:56;;;;;;;11.50;10.68;;;;;;;;;;5084459;28;20543;-68
2023/04/04 10:43:27;;;;;;;11.52;10.82;;;;;;;;;;5098210;28;20653;-67
2023/04/04 10:45:56;;;;;;;11.90;11.30;;;;;;;;;;5102361;28;20207;-66
2023/04/04 10:48:25;;;;;;;11.68;10.98;;;;;;;;;;5098609;28;20203;-66
2023/04/04 10:50:53;;;;;;;11.57;11.02;;;;;;;;;;5102580;28;20526;-65
2023/04/04 10:53:22;;;;;;;12.15;11.55;;;;;;;;;;5083746;28;20259;-65
2023/04/04 10:55:52;;;;;;;10.60;10.07;;;;;;;;;;5102329;28;20195;-65
2023/04/04 10:58:22;;;;;;;11.25;10.63;;;;;;;;;;5101355;28;20215;-65
2023/04/04 11:00:53;;;;;;;12.55;11.70;;;;;;;;;;5104206;28;20192;-65
2023/04/04 11:03:23;;;;;;;11.50;10.90;;;;;;;;;;5100441;28;20206;-67
2023/04/04 11:05:59;;;;;;;11.60;11.00;;;;;;;;;;5101546;28;20543;-68
2023/04/04 11:08:29;;;;;;;11.98;11.27;;;;;;;;;;5099357;28;20192;-67
2023/04/04 11:10:58;;;;;;;11.35;10.77;;;;;;;;;;5107044;28;20202;-67
2023/04/04 11:13:28;;;;;;;11.38;10.77;;;;;;;;;;5113083;28;20206;-67
2023/04/04 11:15:56;;;;;;;11.40;10.80;;;;;;;;;;5106142;28;20197;-67
2023/04/04 11:18:40;;;;;;;13.18;12.07;;;;;;;;;;5095188;28;20210;-66
2023/04/04 11:21:09;;;;;;;11.55;10.95;;;;;;;;;;5092472;28;20223;-65
2023/04/04 11:24:01;;;;;;;11.95;11.35;;;;;;;;;;5092094;28;20199;-66
2023/04/04 11:26:38;;;;;;;11.38;10.63;;;;;;;;;;5093325;28;20192;-65
2023/04/04 11:29:08;;;;;;;12.00;11.30;;;;;;;;;;5093001;28;20187;-66
2023/04/04 11:31:40;;;;;;;12.32;11.48;;;;;;;;;;5092879;28;20211;-66
2023/04/04 11:34:09;;;;;;;12.40;11.80;;;;;;;;;;5079764;28;20206;-66
2023/04/04 11:36:52;;;;;;;11.65;11.18;;;;;;;;;;5072271;28;20208;-66
2023/04/04 11:39:25;;;;;;;12.07;11.38;;;;;;;;;;5054282;28;20194;-67
2023/04/04 11:41:57;;;;;;;12.98;12.23;;;;;;;;;;5071852;28;20192;-68
2023/04/04 11:44:28;;;;;;;12.50;11.70;;;;;;;;;;5071798;28;20208;-65
2023/04/04 11:46:56;;;;;;;12.38;11.68;;;;;;;;;;5072183;28;20195;-67
2023/04/04 11:49:29;;;;;;;11.93;11.32;;;;;;;;;;5072135;28;20204;-67
2023/04/04 11:51:57;;;;;;;12.73;12.02;;;;;;;;;;5071640;28;20188;-68
2023/04/04 11:54:26;;;;;;;12.30;11.50;;;;;;;;;;5054054;28;20705;-67
2023/04/04 11:56:55;;;;;;;12.32;11.70;;;;;;;;;;5053907;28;20602;-65
2023/04/04 11:59:24;;;;;;;11.55;11.05;;;;;;;;;;5084166;28;20225;-68
2023/04/04 12:01:52;;;;;;;11.95;11.15;;;;;;;;;;5092299;28;20753;-67
2023/04/04 12:04:21;;;;;;;12.50;11.80;;;;;;;;;;5080581;28;20254;-67
2023/04/04 12:06:50;;;;;;;12.37;11.50;;;;;;;;;;5074619;28;20635;-68
2023/04/04 12:09:19;;;;;;;12.20;11.50;;;;;;;;;;5073772;28;21222;-68
2023/04/04 12:11:48;;;;;;;12.75;11.98;;;;;;;;;;5090939;28;20208;-68
2023/04/04 12:14:18;;;;;;;13.10;12.20;;;;;;;;;;5092217;28;20203;-68
2023/04/04 12:16:48;;;;;;;12.73;12.02;;;;;;;;;;5068896;28;20204;-68
2023/04/04 12:19:17;;;;;;;12.47;11.57;;;;;;;;;;5081040;28;20208;-67
2023/04/04 12:21:46;;;;;;;13.57;12.87;;;;;;;;;;5088416;28;20630;-67
2023/04/04 12:24:15;;;;;;;12.87;12.00;;;;;;;;;;5078316;28;20619;-67
2023/04/04 12:26:45;;;;;;;13.37;12.67;;;;;;;;;;5082756;28;20636;-66
2023/04/04 12:29:14;;;;;;;12.60;11.90;;;;;;;;;;5073716;28;20592;-68
2023/04/04 12:31:45;;;;;;;12.70;12.10;;;;;;;;;;5091931;28;20645;-68
2023/04/04 12:34:17;;;;;;;12.73;12.03;;;;;;;;;;5090781;28;20595;-66
2023/04/04 12:36:47;;;;;;;12.77;12.07;;;;;;;;;;5078521;28;20606;-67
2023/04/04 12:39:16;;;;;;;14.13;13.00;;;;;;;;;;5065592;28;20650;-68
2023/04/04 12:41:48;;;;;;;12.37;11.57;;;;;;;;;;5083578;28;20657;-67
2023/04/04 12:44:26;;;;;;;12.67;11.87;;;;;;;;;;5091441;28;20631;-67
2023/04/04 12:46:57;;;;;;;12.27;11.70;;;;;;;;;;5073260;28;20651;-68
2023/04/04 12:49:29;;;;;;;13.00;12.30;;;;;;;;;;5082272;28;20573;-68
2023/04/04 12:51:59;;;;;;;12.17;11.57;;;;;;;;;;5083204;28;20576;-68
2023/04/04 12:54:28;;;;;;;12.20;11.60;;;;;;;;;;5071258;28;20624;-68
2023/04/04 12:56:57;;;;;;;12.57;12.07;;;;;;;;;;5070906;28;20622;-67
2023/04/04 12:59:29;;;;;;;14.77;13.40;;;;;;;;;;5082123;28;20670;-68
2023/04/04 13:01:59;;;;;;;12.00;11.50;;;;;;;;;;5090002;28;20592;-68
2023/04/04 13:04:27;;;;;;;13.90;12.80;;;;;;;;;;5071104;28;20621;-68
2023/04/04 13:06:55;;;;;;;13.10;12.40;;;;;;;;;;5091006;28;20670;-65
2023/04/04 13:09:24;;;;;;;13.03;12.23;;;;;;;;;;5091211;28;20649;-66
2023/04/04 13:11:59;;;;;;;12.30;11.70;;;;;;;;;;5091373;28;20941;-65
2023/04/04 13:14:27;;;;;;;13.13;12.50;;;;;;;;;;5090982;28;21156;-65
2023/04/04 13:17:04;;;;;;;13.60;12.60;;;;;;;;;;5091529;28;20643;-65
2023/04/04 13:19:32;;;;;;;14.00;13.20;;;;;;;;;;5090962;28;20651;-67
2023/04/04 13:22:01;;;;;;;13.20;12.60;;;;;;;;;;5091251;28;20591;-67
2023/04/04 13:24:29;;;;;;;13.43;12.43;;;;;;;;;;5091367;28;20586;-67
2023/04/04 13:26:58;;;;;;;12.60;12.00;;;;;;;;;;5073799;28;20649;-66
2023/04/04 13:29:26;;;;;;;12.43;11.73;;;;;;;;;;5090864;28;20587;-66
2023/04/04 13:31:55;;;;;;;12.33;11.50;;;;;;;;;;5090385;28;20599;-67
2023/04/04 13:34:25;;;;;;;12.20;11.63;;;;;;;;;;5091601;28;20606;-66
2023/04/04 13:36:55;;;;;;;13.60;12.50;;;;;;;;;;5076908;28;20591;-67
2023/04/04 13:39:23;;;;;;;14.57;13.47;;;;;;;;;;5094901;28;20609;-65
2023/04/04 13:41:52;;;;;;;13.70;12.57;;;;;;;;;;5095561;28;20991;-65
2023/04/04 13:44:20;;;;;;;13.77;13.00;;;;;;;;;;5096933;28;20596;-67
2023/04/04 13:46:48;;;;;;;11.23;10.63;;;;;;;;;;5094094;28;20800;-65
2023/04/04 13:49:16;;;;;;;13.40;12.47;;;;;;;;;;5094292;28;21220;-67
2023/04/04 13:51:46;;;;;;;13.23;12.13;;;;;;;;;;5094468;28;20593;-66
2023/04/04 13:54:14;;;;;;;13.27;12.43;;;;;;;;;;5076622;28;20579;-67
2023/04/04 13:56:42;;;;;;;12.70;12.10;;;;;;;;;;5094932;28;20617;-66
2023/04/04 13:59:10;;;;;;;12.10;11.50;;;;;;;;;;5095401;28;21020;-67
2023/04/04 14:01:39;;;;;;;13.70;12.83;;;;;;;;;;5095081;28;20965;-68
2023/04/04 14:04:07;;;;;;;12.90;12.30;;;;;;;;;;5096927;28;21352;-66
2023/04/04 14:06:35;;;;;;;12.93;12.10;;;;;;;;;;5102528;28;20661;-66
2023/04/04 14:09:06;;;;;;;12.67;11.47;;;;;;;;;;5102665;28;21040;-65
2023/04/04 14:11:34;;;;;;;13.60;12.40;;;;;;;;;;5100434;28;20625;-67
2023/04/04 14:14:02;;;;;;;13.30;12.17;;;;;;;;;;5105471;28;20616;-66
2023/04/04 14:16:31;;;;;;;12.00;11.50;;;;;;;;;;5104917;28;20958;-67
2023/04/04 14:19:01;;;;;;;13.00;12.30;;;;;;;;;;5104076;28;20635;-66
2023/04/04 14:21:30;;;;;;;12.47;11.77;;;;;;;;;;5105686;28;20987;-66
2023/04/04 14:23:58;;;;;;;12.03;11.43;;;;;;;;;;5104705;28;21031;-66
2023/04/04 14:26:27;;;;;;;12.97;12.23;;;;;;;;;;5105192;28;20657;-66
2023/04/04 14:28:56;;;;;;;13.87;12.30;;;;;;;;;;5103969;28;20627;-67
2023/04/04 14:31:24;;;;;;;13.10;12.10;;;;;;;;;;5105185;28;21020;-66
2023/04/04 14:33:52;;;;;;;13.07;12.27;;;;;;;;;;5111343;28;21186;-67
2023/04/04 14:36:23;;;;;;;13.57;12.57;;;;;;;;;;5114767;28;20680;-67
2023/04/04 14:38:51;;;;;;;13.93;12.60;;;;;;;;;;5114528;28;20577;-67
2023/04/04 14:41:20;;;;;;;12.37;11.77;;;;;;;;;;5114376;28;20623;-67
2023/04/04 14:43:50;;;;;;;14.27;12.87;;;;;;;;;;5113776;28;20630;-67
2023/04/04 14:46:18;;;;;;;12.70;11.90;;;;;;;;;;5112524;28;21017;-67